Time;durP1;ratioP1;P1;durP2;ratioP2;P2;SDS_P1;SDS_P2;PMS_P1;PMS_P2;Temp;Humidity;BMP_temperature;BMP_pressure;BME280_temperature;BME280_humidity;BME280_pressure;Samples;Min_cycle;Max_cycle;Signal;HPM_P1;HPM_P2
2021/05/12 00:01:16;;;;;;;23.33;4.40;;;;;;;11.14;100.00;101027.91;5070652;28;20040;-64
2021/05/12 00:03:42;;;;;;;22.58;3.50;;;;;;;11.13;100.00;101028.97;5069311;28;20047;-65
2021/05/12 00:06:08;;;;;;;30.67;3.83;;;;;;;11.13;100.00;101028.97;5070426;28;20060;-67
2021/05/12 00:08:33;;;;;;;23.13;5.38;;;;;;;11.12;100.00;101013.66;5070583;28;20037;-65
2021/05/12 00:10:59;;;;;;;22.60;3.47;;;;;;;11.14;100.00;101021.59;5070696;28;20044;-66
2021/05/12 00:13:25;;;;;;;30.00;4.57;;;;;;;11.15;100.00;101026.00;5070317;28;20037;-64
2021/05/12 00:15:51;;;;;;;23.10;2.85;;;;;;;11.14;100.00;101025.16;5070325;28;20032;-64
2021/05/12 00:18:21;;;;;;;27.38;4.07;;;;;;;11.16;100.00;101028.47;5071893;28;20387;-63
2021/05/12 00:20:47;;;;;;;30.40;3.83;;;;;;;11.15;100.00;101018.63;5074077;28;20040;-65
2021/05/12 00:23:23;;;;;;;15.50;3.42;;;;;;;11.17;100.00;101023.84;5073988;28;20036;-65
2021/05/12 00:25:49;;;;;;;26.88;3.83;;;;;;;11.17;100.00;101016.47;5074136;28;20126;-65
2021/05/12 00:28:15;;;;;;;27.45;3.97;;;;;;;11.17;100.00;101019.22;5074231;28;20029;-66
2021/05/12 00:30:41;;;;;;;27.30;4.82;;;;;;;11.17;100.00;101019.22;5073918;28;20567;-67
2021/05/12 00:33:06;;;;;;;30.13;4.13;;;;;;;11.17;100.00;101019.22;5073839;28;20146;-66
2021/05/12 00:35:32;;;;;;;29.25;4.53;;;;;;;11.17;100.00;101030.16;5073923;28;20038;-63
2021/05/12 00:37:58;;;;;;;28.52;4.32;;;;;;;11.16;100.00;101022.19;5073806;28;20033;-65
2021/05/12 00:40:23;;;;;;;29.35;4.93;;;;;;;11.14;100.00;101016.97;5073727;28;20091;-66
2021/05/12 00:42:50;;;;;;;22.10;3.70;;;;;;;11.13;100.00;101015.31;5073820;28;20037;-64
2021/05/12 00:45:19;;;;;;;31.50;4.43;;;;;;;11.11;100.00;101020.19;5073669;28;20055;-65
2021/05/12 00:47:51;;;;;;;38.35;5.22;;;;;;;11.08;100.00;101026.09;5073712;28;20027;-66
2021/05/12 00:50:20;;;;;;;26.30;4.47;;;;;;;11.06;100.00;101017.31;5073572;28;20123;-66
2021/05/12 00:52:46;;;;;;;29.23;3.92;;;;;;;11.04;100.00;101018.63;5073602;28;20070;-64
2021/05/12 00:55:12;;;;;;;30.65;4.65;;;;;;;11.03;100.00;101028.75;5073500;28;20444;-64
2021/05/12 00:57:38;;;;;;;30.08;4.68;;;;;;;11.02;100.00;101021.63;5073344;28;20036;-67
2021/05/12 01:00:08;;;;;;;33.28;4.43;;;;;;;11.00;100.00;101021.03;5073272;28;20159;-66
2021/05/12 01:02:34;;;;;;;36.88;4.93;;;;;;;10.99;100.00;101011.19;5073323;28;20033;-65
2021/05/12 01:05:00;;;;;;;33.40;4.43;;;;;;;11.00;100.00;101012.84;5073286;28;20040;-64
2021/05/12 01:07:26;;;;;;;34.50;5.07;;;;;;;10.99;100.00;101010.34;5073284;28;20444;-63
2021/05/12 01:09:52;;;;;;;32.80;4.53;;;;;;;10.97;100.00;101010.59;5073264;28;20071;-64
2021/05/12 01:12:23;;;;;;;34.03;5.32;;;;;;;10.97;100.00;101007.84;5105232;28;20127;-65
2021/05/12 01:14:48;;;;;;;29.23;4.05;;;;;;;10.97;100.00;101010.59;5073016;28;20455;-65
2021/05/12 01:17:15;;;;;;;39.28;5.57;;;;;;;10.96;100.00;101017.13;5073102;28;20663;-64
2021/05/12 01:19:42;;;;;;;41.05;5.25;;;;;;;10.96;100.00;101017.13;5073077;28;20070;-63
2021/05/12 01:22:10;;;;;;;38.67;6.30;;;;;;;10.95;100.00;101020.94;5072977;28;20118;-66
2021/05/12 01:24:36;;;;;;;30.05;5.35;;;;;;;10.94;100.00;101019.28;5072879;28;20094;-65
2021/05/12 01:27:02;;;;;;;33.55;5.60;;;;;;;10.95;100.00;101010.00;5072841;28;20033;-65
2021/05/12 01:29:29;;;;;;;25.60;4.28;;;;;;;10.94;100.00;101013.81;5071802;28;20386;-64
2021/05/12 01:31:55;;;;;;;27.92;4.53;;;;;;;10.90;100.00;101009.88;5072865;28;20037;-64
2021/05/12 01:34:22;;;;;;;27.48;3.60;;;;;;;10.89;100.00;101013.66;5072727;28;20037;-65
2021/05/12 01:36:48;;;;;;;23.25;4.18;;;;;;;10.85;100.00;101005.13;5072605;28;20044;-66
2021/05/12 01:39:15;;;;;;;22.27;3.80;;;;;;;10.84;100.00;101006.19;5072672;28;20115;-65
2021/05/12 01:41:42;;;;;;;37.50;6.18;;;;;;;10.85;100.00;101009.75;5072442;28;20119;-64
2021/05/12 01:44:10;;;;;;;40.17;5.30;;;;;;;10.86;100.00;101005.97;5072460;28;20155;-64
2021/05/12 01:46:37;;;;;;;30.60;4.65;;;;;;;10.87;100.00;101002.16;5072650;28;20433;-64
2021/05/12 01:49:04;;;;;;;35.58;5.57;;;;;;;10.92;100.00;101010.44;5072543;28;20085;-64
2021/05/12 01:51:29;;;;;;;33.85;5.00;;;;;;;10.93;100.00;101006.66;5072514;28;20036;-65
2021/05/12 01:53:55;;;;;;;30.55;4.97;;;;;;;10.88;100.00;101007.38;5072440;28;20474;-65
2021/05/12 01:56:21;;;;;;;29.90;4.95;;;;;;;10.85;100.00;100998.84;5072270;28;20067;-64
2021/05/12 01:58:46;;;;;;;29.55;4.18;;;;;;;10.83;100.00;101003.72;5072021;28;20494;-63
2021/05/12 02:01:12;;;;;;;25.45;5.00;;;;;;;10.82;100.00;101002.06;5072182;28;20052;-64
2021/05/12 02:03:38;;;;;;;24.50;4.13;;;;;;;10.80;100.00;100996.00;5072191;28;20059;-66
2021/05/12 02:06:04;;;;;;;26.90;4.13;;;;;;;10.79;100.00;100995.16;5072194;28;20560;-66
2021/05/12 02:08:30;;;;;;;35.25;5.00;;;;;;;10.82;100.00;100994.69;5072075;28;20024;-66
2021/05/12 02:11:03;;;;;;;28.30;4.75;;;;;;;10.84;100.00;101002.63;5072138;28;20481;-65
2021/05/12 02:13:30;;;;;;;29.67;4.07;;;;;;;10.84;100.00;100998.00;5072018;28;20102;-65
2021/05/12 02:15:57;;;;;;;24.10;4.55;;;;;;;10.84;100.00;101003.47;5071876;28;20608;-66
2021/05/12 02:18:22;;;;;;;27.50;4.82;;;;;;;10.79;100.00;101008.00;5072048;28;20035;-65
2021/05/12 02:20:49;;;;;;;24.45;3.70;;;;;;;10.74;100.00;100996.94;5071749;28;20037;-64
2021/05/12 02:23:17;;;;;;;25.65;3.65;;;;;;;10.71;100.00;101005.63;5071886;28;20067;-66
2021/05/12 02:25:43;;;;;;;13.43;2.72;;;;;;;10.62;100.00;100993.41;5071677;28;20097;-64
2021/05/12 02:28:10;;;;;;;20.38;2.83;;;;;;;10.53;100.00;100991.03;5071906;28;20115;-63
2021/05/12 02:30:37;;;;;;;18.20;3.55;;;;;;;10.47;100.00;100986.53;5071615;28;20044;-65
2021/05/12 02:33:04;;;;;;;18.90;3.60;;;;;;;10.49;100.00;100981.66;5071836;28;20093;-64
2021/05/12 02:35:31;;;;;;;26.80;3.92;;;;;;;10.53;100.00;100980.09;5071470;28;20548;-63
2021/05/12 02:37:56;;;;;;;31.00;5.45;;;;;;;10.56;100.00;100979.63;5071408;28;20527;-66
2021/05/12 02:40:23;;;;;;;18.92;2.92;;;;;;;10.58;100.00;100980.19;5071439;28;20044;-65
2021/05/12 02:42:51;;;;;;;20.48;3.33;;;;;;;10.57;100.00;100981.28;5071401;28;20041;-65
2021/05/12 02:45:18;;;;;;;18.05;3.22;;;;;;;10.55;100.00;100986.16;5071415;28;20043;-65
2021/05/12 02:47:57;;;;;;;25.95;4.43;;;;;;;10.54;100.00;100987.22;5071306;28;20036;-66
2021/05/12 02:50:33;;;;;;;24.23;4.15;;;;;;;10.54;100.00;100986.41;5071100;28;20040;-64
2021/05/12 02:53:00;;;;;;;29.25;4.22;;;;;;;10.53;100.00;100985.56;5071173;28;20039;-66
2021/05/12 02:55:27;;;;;;;38.42;5.53;;;;;;;10.51;100.00;100987.69;5071159;28;20063;-67
2021/05/12 02:57:53;;;;;;;24.70;4.30;;;;;;;10.50;100.00;100990.69;5071189;28;20485;-63
2021/05/12 03:00:22;;;;;;;29.58;4.53;;;;;;;10.48;100.00;100988.19;5070969;28;20060;-64
2021/05/12 03:02:48;;;;;;;27.42;4.95;;;;;;;10.45;100.00;100976.91;5071161;28;20036;-65
2021/05/12 03:05:14;;;;;;;25.30;4.43;;;;;;;10.43;100.00;100985.34;5070993;28;20556;-65
2021/05/12 03:07:40;;;;;;;39.75;6.07;;;;;;;10.41;100.00;100982.03;5071035;28;20044;-64
2021/05/12 03:10:09;;;;;;;36.28;5.32;;;;;;;10.40;100.00;100980.34;5070878;28;20032;-64
2021/05/12 03:12:35;;;;;;;29.45;4.10;;;;;;;10.40;100.00;100980.34;5070800;28;20039;-65
2021/05/12 03:15:01;;;;;;;29.30;5.03;;;;;;;10.40;100.00;100977.59;5071006;28;20372;-66
2021/05/12 03:17:27;;;;;;;36.53;5.45;;;;;;;10.40;100.00;100984.97;5070958;28;20123;-65
2021/05/12 03:19:52;;;;;;;23.98;4.05;;;;;;;10.39;100.00;100977.84;5069645;28;20685;-64
2021/05/12 03:22:18;;;;;;;33.40;5.45;;;;;;;10.39;100.00;100978.69;5070878;28;20494;-65
2021/05/12 03:24:43;;;;;;;39.75;4.82;;;;;;;10.38;100.00;100976.19;5070673;28;20577;-65
2021/05/12 03:27:09;;;;;;;33.70;4.63;;;;;;;10.38;100.00;100977.00;5069449;28;20570;-65
2021/05/12 03:29:35;;;;;;;31.25;5.05;;;;;;;10.38;100.00;100973.47;5070759;28;20036;-63
2021/05/12 03:32:01;;;;;;;36.45;5.22;;;;;;;10.37;100.00;100975.34;5070642;28;20040;-66
2021/05/12 03:34:26;;;;;;;38.95;5.45;;;;;;;10.37;100.00;100975.34;5070789;28;20089;-65
2021/05/12 03:36:52;;;;;;;30.25;4.82;;;;;;;10.38;100.00;100977.00;5070594;28;20561;-67
2021/05/12 03:39:18;;;;;;;27.52;5.65;;;;;;;10.38;100.00;100976.19;5070725;28;20228;-64
2021/05/12 03:41:44;;;;;;;23.67;5.55;;;;;;;10.37;100.00;100975.34;5070647;28;20037;-64
2021/05/12 03:44:11;;;;;;;28.63;5.25;;;;;;;10.36;100.00;100972.88;5070575;28;20501;-65
2021/05/12 03:46:37;;;;;;;46.85;5.63;;;;;;;10.35;100.00;100971.22;5070567;28;20083;-64
2021/05/12 03:49:03;;;;;;;32.72;4.30;;;;;;;10.34;100.00;100970.38;5070583;28;20094;-65
2021/05/12 03:51:29;;;;;;;33.30;6.43;;;;;;;10.33;100.00;100968.72;5070634;28;20475;-64
2021/05/12 03:53:54;;;;;;;28.83;4.38;;;;;;;10.32;100.00;100972.50;5073331;28;20047;-63
2021/05/12 03:56:20;;;;;;;21.35;4.30;;;;;;;10.33;100.00;100968.72;5074663;28;20432;-66
2021/05/12 03:58:46;;;;;;;27.25;4.50;;;;;;;10.34;100.00;100970.38;5074287;28;20090;-66
2021/05/12 04:01:11;;;;;;;30.98;4.72;;;;;;;10.35;100.00;100971.22;5074471;28;20044;-63
2021/05/12 04:03:37;;;;;;;36.70;4.95;;;;;;;10.36;100.00;100973.69;5074340;28;20135;-65
2021/05/12 04:06:03;;;;;;;34.33;4.20;;;;;;;10.39;100.00;100977.84;5074372;28;20044;-64
2021/05/12 04:08:28;;;;;;;40.22;6.30;;;;;;;10.40;100.00;100980.34;5074692;28;20436;-65
2021/05/12 04:10:54;;;;;;;29.98;5.28;;;;;;;10.43;100.00;100982.63;5074498;28;20539;-65
2021/05/12 04:13:22;;;;;;;33.35;4.85;;;;;;;10.42;100.00;100971.94;5074289;28;20513;-64
2021/05/12 04:15:48;;;;;;;32.33;4.95;;;;;;;10.43;100.00;100973.59;5074285;28;20110;-64
2021/05/12 04:18:14;;;;;;;27.95;4.63;;;;;;;10.44;100.00;100978.81;5074635;28;20526;-64
2021/05/12 04:20:40;;;;;;;31.02;6.07;;;;;;;10.45;100.00;100976.91;5074267;28;20127;-66
2021/05/12 04:23:06;;;;;;;28.63;4.40;;;;;;;10.48;100.00;100982.72;5073998;28;20151;-64
2021/05/12 04:25:33;;;;;;;42.15;5.55;;;;;;;10.50;100.00;100983.31;5073998;28;20032;-66
2021/05/12 04:27:59;;;;;;;29.02;5.22;;;;;;;10.54;100.00;100986.41;5074136;28;20055;-64
2021/05/12 04:30:25;;;;;;;36.22;4.25;;;;;;;10.56;100.00;100985.06;5074079;28;20043;-65
2021/05/12 04:32:51;;;;;;;29.15;4.10;;;;;;;10.59;100.00;100983.81;5073791;28;20040;-65
2021/05/12 04:35:19;;;;;;;31.48;5.15;;;;;;;10.62;100.00;100982.50;5073854;28;20070;-66
2021/05/12 04:37:46;;;;;;;30.75;5.00;;;;;;;10.63;100.00;100984.97;5073754;28;20029;-64
2021/05/12 04:40:13;;;;;;;26.88;4.57;;;;;;;10.67;100.00;100985.31;5073712;28;20101;-65
2021/05/12 04:42:41;;;;;;;39.85;5.75;;;;;;;10.69;100.00;100989.47;5073643;28;20044;-65
2021/05/12 04:45:09;;;;;;;36.35;5.50;;;;;;;10.70;100.00;100984.84;5073749;28;20035;-64
2021/05/12 04:47:35;;;;;;;30.05;4.20;;;;;;;10.70;100.00;100982.09;5074104;28;20039;-65
2021/05/12 04:50:00;;;;;;;33.35;4.55;;;;;;;10.72;100.00;100993.63;5073532;28;20032;-64
2021/05/12 04:52:26;;;;;;;26.52;4.47;;;;;;;10.72;100.00;100977.22;5073503;28;20399;-65
2021/05/12 04:54:52;;;;;;;35.92;5.40;;;;;;;10.71;100.00;100981.88;5073452;28;20495;-65
2021/05/12 04:57:18;;;;;;;26.52;4.38;;;;;;;10.71;100.00;100981.03;5073372;28;20501;-63
2021/05/12 04:59:44;;;;;;;29.92;4.45;;;;;;;10.70;100.00;100991.13;5073143;28;20115;-65
2021/05/12 05:02:12;;;;;;;25.83;3.85;;;;;;;10.68;100.00;100981.53;5073489;28;20503;-64
2021/05/12 05:04:41;;;;;;;26.00;3.97;;;;;;;10.66;100.00;100983.66;5073250;28;20047;-67
2021/05/12 05:07:08;;;;;;;32.95;4.90;;;;;;;10.64;100.00;100991.25;5073324;28;20391;-65
2021/05/12 05:09:33;;;;;;;22.55;4.78;;;;;;;10.62;100.00;100982.50;5073626;28;20483;-65
2021/05/12 05:11:59;;;;;;;25.40;5.18;;;;;;;10.61;100.00;100989.84;5073139;28;20181;-64
2021/05/12 05:14:26;;;;;;;29.50;4.20;;;;;;;10.60;100.00;101001.84;5073150;28;20040;-65
2021/05/12 05:16:52;;;;;;;29.05;4.32;;;;;;;10.58;100.00;100998.50;5073037;28;20497;-65
2021/05/12 05:19:17;;;;;;;35.47;5.82;;;;;;;10.57;100.00;100997.66;5073183;28;20044;-64
2021/05/12 05:21:43;;;;;;;31.67;4.88;;;;;;;10.55;100.00;100993.50;5073102;28;20062;-63
2021/05/12 05:24:09;;;;;;;36.50;5.13;;;;;;;10.55;100.00;100988.06;5073185;28;20383;-63
2021/05/12 05:26:35;;;;;;;37.10;4.57;;;;;;;10.56;100.00;100996.00;5072963;28;20039;-65
2021/05/12 05:29:01;;;;;;;27.30;5.03;;;;;;;10.54;100.00;100998.16;5072895;28;20033;-65
2021/05/12 05:31:27;;;;;;;28.08;4.53;;;;;;;10.54;100.00;100992.69;5072824;28;20131;-64
2021/05/12 05:33:54;;;;;;;18.98;3.67;;;;;;;10.53;100.00;100996.50;5072756;28;20123;-66
2021/05/12 05:36:20;;;;;;;29.60;4.60;;;;;;;10.53;100.00;100996.50;5072741;28;20036;-64
2021/05/12 05:38:45;;;;;;;35.45;5.13;;;;;;;10.54;100.00;100997.31;5071619;28;20036;-65
2021/05/12 05:41:11;;;;;;;33.25;5.47;;;;;;;10.53;100.00;100995.66;5072668;28;20063;-66
2021/05/12 05:43:37;;;;;;;44.45;7.30;;;;;;;10.53;100.00;101007.41;5072481;28;20051;-65
2021/05/12 05:46:02;;;;;;;21.70;4.13;;;;;;;10.53;100.00;101001.94;5072516;28;20064;-64
2021/05/12 05:48:28;;;;;;;30.30;4.28;;;;;;;10.55;100.00;101001.72;5072550;28;20112;-64
2021/05/12 05:50:53;;;;;;;26.23;3.58;;;;;;;10.54;100.00;100998.16;5072351;28;20490;-66
2021/05/12 05:53:20;;;;;;;37.35;4.20;;;;;;;10.56;100.00;100993.28;5072345;28;20032;-64
2021/05/12 05:55:47;;;;;;;33.85;4.80;;;;;;;10.56;100.00;100985.06;5072498;28;20049;-65
2021/05/12 05:58:13;;;;;;;22.83;3.67;;;;;;;10.58;100.00;100987.56;5072322;28;20041;-66
2021/05/12 06:00:41;;;;;;;30.77;4.53;;;;;;;10.61;100.00;100986.28;5071996;28;20517;-64
2021/05/12 06:03:07;;;;;;;23.08;3.75;;;;;;;10.63;100.00;100990.44;5072251;28;20078;-64
2021/05/12 06:05:33;;;;;;;33.67;4.75;;;;;;;10.66;100.00;100991.84;5072199;28;20100;-65
2021/05/12 06:07:58;;;;;;;27.05;5.28;;;;;;;10.69;100.00;100989.47;5072172;28;20039;-64
2021/05/12 06:10:24;;;;;;;36.40;5.43;;;;;;;10.73;100.00;100990.66;5071976;28;20044;-64
2021/05/12 06:12:51;;;;;;;26.90;4.15;;;;;;;10.77;100.00;100996.50;5070987;28;20033;-66
2021/05/12 06:15:20;;;;;;;22.45;5.03;;;;;;;10.80;100.00;100991.38;5071524;28;20090;-65
2021/05/12 06:17:47;;;;;;;30.77;3.88;;;;;;;10.84;100.00;100986.25;5071865;28;20399;-66
2021/05/12 06:20:13;;;;;;;33.38;4.68;;;;;;;10.88;100.00;100988.25;5071858;28;20199;-65
2021/05/12 06:22:42;;;;;;;28.13;3.97;;;;;;;10.93;100.00;100990.25;5071889;28;20037;-65
2021/05/12 06:25:10;;;;;;;28.05;4.93;;;;;;;10.97;100.00;100986.00;5071852;28;20037;-63
2021/05/12 06:27:39;;;;;;;29.08;4.65;;;;;;;11.01;100.00;100987.16;5072009;28;20036;-64
2021/05/12 06:30:06;;;;;;;21.75;4.75;;;;;;;11.07;100.00;100994.38;5071924;28;20063;-65
2021/05/12 06:32:31;;;;;;;24.55;4.80;;;;;;;11.11;100.00;100990.13;5072001;28;20040;-63
2021/05/12 06:34:57;;;;;;;24.63;3.97;;;;;;;11.15;100.00;100988.56;5071881;28;20041;-65
2021/05/12 06:37:23;;;;;;;28.50;3.90;;;;;;;11.23;100.00;100989.22;5072198;28;20467;-64
2021/05/12 06:39:52;;;;;;;22.10;3.72;;;;;;;11.28;100.00;100990.19;5071600;28;20093;-65
2021/05/12 06:42:18;;;;;;;43.63;5.28;;;;;;;11.29;100.00;100982.81;5071570;28;20071;-63
2021/05/12 06:44:43;;;;;;;25.35;3.63;;;;;;;11.32;100.00;100993.25;5071516;28;20036;-65
2021/05/12 06:47:09;;;;;;;28.58;5.07;;;;;;;11.35;100.00;100998.22;5071503;28;20539;-66
2021/05/12 06:49:35;;;;;;;27.65;4.30;;;;;;;11.37;100.00;101001.56;5071630;28;20040;-65
2021/05/12 06:52:00;;;;;;;42.35;5.57;;;;;;;11.40;100.00;100993.69;5071471;28;20021;-63
2021/05/12 06:54:26;;;;;;;27.70;4.20;;;;;;;11.42;100.00;100993.44;5071189;28;20082;-65
2021/05/12 06:56:52;;;;;;;25.55;3.88;;;;;;;11.47;100.00;100999.03;5071196;28;20052;-64
2021/05/12 06:59:17;;;;;;;29.55;5.70;;;;;;;11.45;100.00;100987.47;5071078;28;20052;-65
2021/05/12 07:01:47;;;;;;;22.73;4.35;;;;;;;11.46;100.00;101000.09;5071199;28;20384;-65
2021/05/12 07:04:12;;;;;;;33.00;5.70;;;;;;;11.53;100.00;101005.41;5071037;28;20069;-67
2021/05/12 07:06:38;;;;;;;28.50;5.13;;;;;;;11.57;100.00;100996.47;5071615;28;20045;-65
2021/05/12 07:09:04;;;;;;;24.50;3.85;;;;;;;11.57;100.00;100996.47;5071184;28;20028;-64
2021/05/12 07:11:29;;;;;;;32.33;5.47;;;;;;;11.56;100.00;100992.06;5071115;28;20067;-62
2021/05/12 07:13:55;;;;;;;25.90;4.30;;;;;;;11.55;100.00;100990.41;5069730;28;20047;-65
2021/05/12 07:16:22;;;;;;;27.42;4.95;;;;;;;11.62;100.00;101003.94;5070776;28;20037;-64
2021/05/12 07:18:47;;;;;;;28.85;4.88;;;;;;;11.64;100.00;100997.16;5070735;28;20033;-64
2021/05/12 07:21:13;;;;;;;34.17;4.70;;;;;;;11.74;100.00;100994.59;5069366;28;20170;-64
2021/05/12 07:23:43;;;;;;;23.40;4.22;;;;;;;11.85;100.00;100997.56;5070949;28;20044;-64
2021/05/12 07:26:09;;;;;;;28.77;4.65;;;;;;;11.97;100.00;101003.78;5070893;28;20043;-63
2021/05/12 07:28:35;;;;;;;25.40;3.97;;;;;;;12.08;100.00;100998.22;5069904;28;20035;-66
2021/05/12 07:31:01;;;;;;;23.33;3.95;;;;;;;12.23;100.00;101005.03;5070733;28;20048;-66
2021/05/12 07:33:26;;;;;;;26.83;3.92;;;;;;;12.36;100.00;101000.06;5070575;28;20036;-64
2021/05/12 07:35:52;;;;;;;26.35;3.35;;;;;;;12.49;100.00;101009.00;5070640;28;20399;-65
2021/05/12 07:38:17;;;;;;;17.02;3.15;;;;;;;12.61;100.00;100996.88;5063065;28;20390;-64
2021/05/12 07:40:43;;;;;;;28.45;4.15;;;;;;;12.71;100.00;101000.84;5068386;28;20040;-64
2021/05/12 07:43:11;;;;;;;17.83;3.60;;;;;;;12.80;100.00;100994.66;5070414;28;20045;-64
2021/05/12 07:45:38;;;;;;;22.38;3.38;;;;;;;12.94;100.00;101000.59;5070385;28;20028;-64
2021/05/12 07:48:05;;;;;;;22.88;4.07;;;;;;;13.01;100.00;101000.41;5068659;28;20040;-64
2021/05/12 07:50:31;;;;;;;24.00;4.78;;;;;;;13.03;100.00;101003.75;5068443;28;20045;-66
2021/05/12 07:52:59;;;;;;;18.52;4.13;;;;;;;13.07;100.00;101000.25;5070268;28;20036;-68
2021/05/12 07:55:25;;;;;;;27.33;3.58;;;;;;;13.10;100.00;101004.38;5069794;28;20044;-66
2021/05/12 07:57:51;;;;;;;18.70;3.33;;;;;;;13.13;100.00;101004.69;5059499;28;20087;-66
2021/05/12 08:00:17;;;;;;;18.85;3.70;;;;;;;13.14;100.00;101005.53;5053515;28;20059;-66
2021/05/12 08:02:43;;;;;;;20.88;4.20;;;;;;;13.13;100.00;101001.13;5060378;28;20535;-65
2021/05/12 08:05:09;;;;;;;22.75;3.63;;;;;;;13.16;100.00;100997.88;5063144;28;20059;-65
2021/05/12 08:07:36;;;;;;;15.10;3.33;;;;;;;13.19;100.00;101003.72;5056462;28;20060;-64
2021/05/12 08:10:02;;;;;;;19.60;3.90;;;;;;;13.24;100.00;100994.72;5070069;28;20394;-68
2021/05/12 08:12:27;;;;;;;15.77;3.15;;;;;;;13.28;100.00;100993.13;5055042;28;20028;-64
2021/05/12 08:14:54;;;;;;;23.02;2.65;;;;;;;13.25;100.00;100990.88;5052843;28;20415;-65
2021/05/12 08:17:19;;;;;;;20.08;3.13;;;;;;;13.24;100.00;100994.72;5050490;28;20035;-65
2021/05/12 08:19:45;;;;;;;23.20;3.20;;;;;;;13.24;100.00;100995.53;5049982;28;20056;-68
2021/05/12 08:22:11;;;;;;;18.35;3.15;;;;;;;13.29;100.00;100997.50;5060274;28;20417;-67
2021/05/12 08:24:36;;;;;;;28.27;4.47;;;;;;;13.36;100.00;100998.13;5062755;28;20039;-64
2021/05/12 08:27:04;;;;;;;22.75;3.67;;;;;;;13.48;100.00;100996.09;5070148;28;20046;-65
2021/05/12 08:29:30;;;;;;;20.23;4.10;;;;;;;13.54;100.00;100997.00;5061503;28;20028;-65
2021/05/12 08:32:00;;;;;;;22.92;3.50;;;;;;;13.58;100.00;101000.88;5056926;28;20041;-68
2021/05/12 08:34:28;;;;;;;18.38;3.88;;;;;;;13.62;100.00;100990.19;5050093;28;20069;-65
2021/05/12 08:36:55;;;;;;;24.58;3.63;;;;;;;13.65;100.00;100995.16;5032354;28;20041;-65
2021/05/12 08:39:22;;;;;;;21.95;3.50;;;;;;;13.68;100.00;100994.63;5058964;28;20143;-65
2021/05/12 08:41:49;;;;;;;21.13;3.83;;;;;;;13.71;100.00;100996.88;5060603;28;20575;-67
2021/05/12 08:44:15;;;;;;;18.30;3.60;;;;;;;13.71;100.00;100992.22;5060037;28;20475;-64
2021/05/12 08:46:43;;;;;;;16.17;2.90;;;;;;;13.76;100.00;100994.19;5064495;28;20132;-66
2021/05/12 08:49:09;;;;;;;21.50;3.88;;;;;;;13.77;100.00;100993.09;5060099;28;20430;-65
2021/05/12 08:51:38;;;;;;;20.73;3.78;;;;;;;13.76;100.00;100988.69;5056320;28;20040;-65
2021/05/12 08:54:06;;;;;;;16.38;3.47;;;;;;;13.75;100.00;100984.28;5071880;28;20025;-66
2021/05/12 08:56:32;;;;;;;22.25;3.97;;;;;;;13.75;100.00;100984.28;5056308;28;20132;-69
2021/05/12 08:58:59;;;;;;;17.60;3.22;;;;;;;13.73;100.00;100986.47;5069439;28;20127;-67
2021/05/12 09:01:25;;;;;;;23.58;3.28;;;;;;;13.69;100.00;100993.53;5072667;28;20028;-65
2021/05/12 09:03:51;;;;;;;18.45;4.05;;;;;;;13.65;100.00;100985.00;5071712;28;20032;-65
2021/05/12 09:06:18;;;;;;;25.75;4.20;;;;;;;13.61;100.00;100983.06;5061734;28;20395;-64
2021/05/12 09:08:47;;;;;;;22.90;4.20;;;;;;;13.52;100.00;100988.16;5072841;28;20028;-67
2021/05/12 09:11:13;;;;;;;19.30;3.58;;;;;;;13.50;100.00;100980.19;5070505;28;20036;-67
2021/05/12 09:13:41;;;;;;;26.58;3.47;;;;;;;13.48;100.00;100984.28;5069518;28;20055;-68
2021/05/12 09:16:16;;;;;;;17.70;3.97;;;;;;;13.45;100.00;100985.63;5055188;28;20068;-63
2021/05/12 09:18:43;;;;;;;25.02;4.75;;;;;;;13.44;100.00;100989.47;5059503;28;20029;-65
2021/05/12 09:21:08;;;;;;;20.05;3.28;;;;;;;13.43;100.00;100982.31;5073153;28;20075;-62
2021/05/12 09:23:39;;;;;;;18.15;3.75;;;;;;;13.40;100.00;100977.34;5073072;28;20063;-65
2021/05/12 09:26:16;;;;;;;27.13;3.72;;;;;;;13.42;100.00;100980.66;5056914;28;20048;-63
2021/05/12 09:28:43;;;;;;;28.73;4.82;;;;;;;13.44;100.00;100989.47;5072269;28;20089;-67
2021/05/12 09:31:13;;;;;;;25.52;3.95;;;;;;;13.45;100.00;100984.81;5072945;28;20425;-63
2021/05/12 09:33:45;;;;;;;22.30;3.78;;;;;;;13.45;100.00;100977.41;5071070;28;20037;-64
2021/05/12 09:36:28;;;;;;;27.70;4.07;;;;;;;13.50;100.00;100982.94;5054507;28;20033;-66
2021/05/12 09:38:55;;;;;;;20.02;3.20;;;;;;;13.54;100.00;100973.13;5052892;28;20085;-64
2021/05/12 09:41:31;;;;;;;24.55;3.92;;;;;;;13.61;100.00;100972.06;5052432;28;20044;-63
2021/05/12 09:43:58;;;;;;;20.20;3.47;;;;;;;13.67;100.00;100971.03;5073073;28;20424;-65
2021/05/12 09:46:26;;;;;;;21.55;3.60;;;;;;;13.72;100.00;100973.84;5070938;28;20032;-64
2021/05/12 09:49:00;;;;;;;21.80;4.15;;;;;;;13.79;100.00;100963.47;5072472;28;20059;-64
2021/05/12 09:51:38;;;;;;;27.15;3.88;;;;;;;13.86;100.00;100964.06;5071627;28;20139;-65
2021/05/12 09:54:14;;;;;;;24.05;4.43;;;;;;;13.90;100.00;100965.22;5055083;28;20380;-63
2021/05/12 09:56:54;;;;;;;29.52;4.65;;;;;;;13.93;100.00;100964.69;5071522;28;20390;-65
2021/05/12 09:59:26;;;;;;;19.27;3.80;;;;;;;13.95;100.00;100962.50;5072313;28;20059;-65
2021/05/12 10:02:01;;;;;;;13.20;1.90;;;;;;;13.93;100.00;100959.19;5072455;28;20036;-66
2021/05/12 10:04:43;;;;;;;11.95;2.58;;;;;;;13.78;100.00;100956.31;5071174;28;20060;-68
2021/05/12 10:07:26;;;;;;;7.57;1.52;;;;;;;13.56;100.00;100962.72;5071835;28;20069;-63
2021/05/12 10:09:56;;;;;;;10.85;1.88;;;;;;;13.45;100.00;100968.34;5069517;28;20028;-66
2021/05/12 10:12:23;;;;;;;11.65;2.00;;;;;;;13.38;100.00;100963.06;5050426;28;20402;-67
2021/05/12 10:14:57;;;;;;;10.30;1.63;;;;;;;13.31;100.00;100967.09;5061006;28;20032;-66
2021/05/12 10:17:28;;;;;;;9.55;1.33;;;;;;;13.25;100.00;100966.19;5072030;28;20127;-66
2021/05/12 10:19:56;;;;;;;8.57;1.65;;;;;;;13.17;100.00;100961.13;5071944;28;20040;-65
2021/05/12 10:22:24;;;;;;;5.97;1.73;;;;;;;13.10;100.00;100960.50;5071627;28;20120;-66
2021/05/12 10:24:54;;;;;;;6.55;1.33;;;;;;;13.05;100.00;100964.03;5071616;28;20044;-66
2021/05/12 10:27:27;;;;;;;8.20;1.30;;;;;;;13.02;100.00;100963.72;5071757;28;20041;-66
2021/05/12 10:29:54;;;;;;;10.60;1.60;;;;;;;13.04;100.00;100964.28;5068706;28;20433;-64
2021/05/12 10:32:35;;;;;;;8.20;2.05;;;;;;;13.07;100.00;100963.75;5071429;28;20044;-66
2021/05/12 10:35:12;;;;;;;7.38;1.40;;;;;;;13.07;100.00;100945.41;5071847;28;20036;-65
2021/05/12 10:37:39;;;;;;;12.52;2.17;;;;;;;13.10;100.00;100955.84;5071324;28;20854;-64
2021/05/12 10:40:24;;;;;;;9.23;1.92;;;;;;;13.15;100.00;100953.16;5071447;28;20144;-66
2021/05/12 10:45:35;;;;;;;4.57;1.33;;;;;;;13.30;100.00;100948.97;5071215;28;20036;-66
2021/05/12 10:48:02;;;;;;;6.75;1.45;;;;;;;13.38;100.00;100946.59;5071328;28;20032;-67
2021/05/12 10:50:48;;;;;;;9.20;1.48;;;;;;;13.49;100.00;100953.00;5071208;28;20102;-65
2021/05/12 10:53:17;;;;;;;7.97;1.92;;;;;;;13.58;100.00;100946.81;5071289;28;20103;-66
2021/05/12 10:55:58;;;;;;;8.23;2.03;;;;;;;13.66;100.00;100958.38;5071398;28;20129;-66
2021/05/12 10:58:30;;;;;;;17.42;2.10;;;;;;;13.66;100.00;100950.97;5071106;28;20067;-67
2021/05/12 11:01:01;;;;;;;13.15;2.35;;;;;;;13.70;100.00;100951.28;5070924;28;20482;-65
2021/05/12 11:03:52;;;;;;;10.60;2.40;;;;;;;13.69;100.00;100949.63;5057412;28;20037;-67
2021/05/12 11:06:20;;;;;;;10.85;2.38;;;;;;;13.67;100.00;100947.16;5049814;28;20395;-65
2021/05/12 11:09:06;;;;;;;8.35;1.73;;;;;;;13.62;100.00;100951.78;5051025;28;20534;-66
2021/05/12 11:11:32;;;;;;;11.48;2.10;;;;;;;13.58;100.00;100960.53;5051010;28;20048;-64
2021/05/12 11:14:20;;;;;;;6.68;1.90;;;;;;;13.56;100.00;100965.44;5051126;28;20595;-67